createdAt,value
2019-05-18T00:00:23.320Z,10.74
2019-05-18T00:01:23.416Z,10.76
2019-05-18T00:02:23.440Z,10.74
2019-05-18T00:03:23.502Z,10.74
2019-05-18T00:04:23.563Z,10.76
2019-05-18T00:05:23.638Z,10.79
2019-05-18T00:06:23.696Z,10.72
2019-05-18T00:07:23.767Z,10.76
2019-05-18T00:08:23.812Z,10.87
2019-05-18T00:09:23.878Z,10.96
2019-05-18T00:10:23.947Z,10.97
2019-05-18T00:11:24.009Z,10.96
2019-05-18T00:12:24.065Z,11.05
2019-05-18T00:13:24.126Z,11.04
2019-05-18T00:14:24.189Z,11.11
2019-05-18T00:15:24.399Z,11.10
2019-05-18T00:16:24.309Z,11.12
2019-05-18T00:17:25.521Z,11.04
2019-05-18T00:18:24.439Z,11.12
2019-05-18T00:19:24.501Z,11.07
2019-05-18T00:20:24.571Z,11.08
2019-05-18T00:21:24.642Z,11.08
2019-05-18T00:22:24.685Z,11.11
2019-05-18T00:23:24.753Z,11.05
2019-05-18T00:24:24.813Z,11.05
2019-05-18T00:25:24.883Z,11.05
2019-05-18T00:26:24.946Z,11.02
2019-05-18T00:27:24.995Z,11.04
2019-05-18T00:28:25.095Z,11.08
2019-05-18T00:29:25.122Z,11.12
2019-05-18T00:30:25.278Z,11.17
2019-05-18T00:31:25.252Z,11.15
2019-05-18T00:32:25.307Z,11.17
2019-05-18T00:33:25.378Z,11.30
2019-05-18T00:34:25.433Z,11.33
2019-05-18T00:35:25.502Z,11.37
2019-05-18T00:36:25.567Z,11.41
2019-05-18T00:37:25.622Z,11.43
2019-05-18T00:38:25.683Z,11.43
2019-05-18T00:39:25.752Z,11.45
2019-05-18T00:40:25.817Z,11.41
2019-05-18T00:41:25.880Z,11.33
2019-05-18T00:42:25.930Z,11.41
2019-05-18T00:43:26.000Z,11.44
2019-05-18T00:44:26.054Z,11.44
2019-05-18T00:45:26.135Z,11.36
2019-05-18T00:46:26.183Z,11.35
2019-05-18T00:47:40.399Z,11.32
2019-05-18T00:48:26.306Z,11.27
2019-05-18T00:49:26.376Z,11.32
2019-05-18T00:50:26.435Z,11.30
2019-05-18T00:51:26.513Z,11.23
2019-05-18T00:52:26.556Z,11.26
2019-05-18T00:53:26.620Z,11.30
2019-05-18T00:54:26.681Z,11.30
2019-05-18T00:55:26.757Z,11.17
2019-05-18T00:56:26.810Z,11.23
2019-05-18T00:57:26.867Z,11.14
2019-05-18T00:58:26.932Z,11.19
2019-05-18T00:59:26.992Z,11.26
2019-05-18T01:00:27.067Z,11.14
2019-05-18T01:01:27.123Z,11.10
2019-05-18T01:02:27.179Z,11.17
2019-05-18T01:03:27.239Z,11.10
2019-05-18T01:04:27.303Z,11.08
2019-05-18T01:05:27.375Z,11.00
2019-05-18T01:06:27.436Z,10.97
2019-05-18T01:07:27.488Z,10.93
2019-05-18T01:08:27.555Z,10.94
2019-05-18T01:09:27.620Z,10.96
2019-05-18T01:10:27.684Z,10.97
2019-05-18T01:11:27.749Z,10.94
2019-05-18T01:12:27.804Z,10.94
2019-05-18T01:13:27.863Z,10.94
2019-05-18T01:14:27.932Z,10.92
2019-05-18T01:15:27.994Z,10.97
2019-05-18T01:16:28.064Z,10.94
2019-05-18T01:17:28.116Z,10.96
2019-05-18T01:18:28.173Z,10.94
2019-05-18T01:19:28.238Z,10.97
2019-05-18T01:20:28.296Z,10.96
2019-05-18T01:21:28.373Z,11.08
2019-05-18T01:22:28.425Z,11.10
2019-05-18T01:23:28.484Z,11.10
2019-05-18T01:24:28.553Z,11.15
2019-05-18T01:25:28.614Z,11.11
2019-05-18T01:26:28.684Z,11.14
2019-05-18T01:27:28.742Z,11.12
2019-05-18T01:28:28.797Z,11.14
2019-05-18T01:29:28.860Z,11.25
2019-05-18T01:30:28.924Z,11.17
2019-05-18T01:31:28.992Z,11.12
2019-05-18T01:32:29.072Z,11.14
2019-05-18T01:33:29.108Z,11.15
2019-05-18T01:34:29.173Z,11.27
2019-05-18T01:35:29.233Z,11.25
2019-05-18T01:36:29.317Z,11.27
2019-05-18T01:37:29.357Z,11.26
2019-05-18T01:38:29.422Z,11.35
2019-05-18T01:39:29.535Z,11.37
2019-05-18T01:40:29.546Z,11.45
2019-05-18T01:41:29.614Z,11.50
2019-05-18T01:42:29.678Z,11.41
2019-05-18T01:43:29.730Z,11.44
2019-05-18T01:44:29.804Z,11.55
2019-05-18T01:45:29.858Z,11.47
2019-05-18T01:46:29.925Z,11.50
2019-05-18T01:47:29.992Z,11.55
2019-05-18T01:48:30.041Z,11.57
2019-05-18T01:49:30.105Z,11.54
2019-05-18T01:50:30.165Z,11.57
2019-05-18T01:51:30.242Z,11.68
2019-05-18T01:52:30.291Z,11.60
2019-05-18T01:53:30.358Z,11.62
2019-05-18T01:54:30.420Z,11.72
2019-05-18T01:55:30.479Z,11.70
2019-05-18T01:56:30.549Z,11.73
2019-05-18T01:57:30.611Z,11.65
2019-05-18T01:58:30.667Z,11.72
2019-05-18T01:59:30.741Z,11.77
2019-05-18T02:00:30.794Z,11.77
2019-05-18T02:01:30.869Z,11.75
2019-05-18T02:02:30.922Z,11.73
2019-05-18T02:03:30.979Z,11.84
2019-05-18T02:04:31.038Z,11.81
2019-05-18T02:05:31.106Z,11.84
2019-05-18T02:06:31.254Z,11.84
2019-05-18T02:07:31.227Z,11.75
2019-05-18T02:08:31.294Z,11.83
2019-05-18T02:09:31.352Z,11.75
2019-05-18T02:10:31.436Z,11.81
2019-05-18T02:11:31.490Z,11.81
2019-05-18T02:12:31.547Z,11.73
2019-05-18T02:13:31.608Z,11.83
2019-05-18T02:14:31.663Z,11.83
2019-05-18T02:15:31.727Z,11.86
2019-05-18T02:16:31.801Z,11.84
2019-05-18T02:17:31.860Z,11.70
2019-05-18T02:18:31.931Z,11.80
2019-05-18T02:19:31.974Z,11.81
2019-05-18T02:20:32.039Z,11.78
2019-05-18T02:21:32.128Z,11.68
2019-05-18T02:22:32.167Z,11.72
2019-05-18T02:23:32.231Z,11.68
2019-05-18T02:24:32.288Z,11.69
2019-05-18T02:25:32.353Z,11.73
2019-05-18T02:26:32.495Z,11.73
2019-05-18T02:27:32.488Z,11.70
2019-05-18T02:28:32.540Z,11.62
2019-05-18T02:29:32.609Z,11.60
2019-05-18T02:30:32.665Z,11.57
2019-05-18T02:31:32.736Z,11.55
2019-05-18T02:32:32.799Z,11.55
2019-05-18T02:33:32.856Z,11.45
2019-05-18T02:34:32.914Z,11.52
2019-05-18T02:35:32.978Z,11.45
2019-05-18T02:36:33.046Z,11.45
2019-05-18T02:37:33.108Z,11.41
2019-05-18T02:38:33.166Z,11.40
2019-05-18T02:39:33.231Z,11.36
2019-05-18T02:40:33.286Z,11.30
2019-05-18T02:41:33.357Z,11.27
2019-05-18T02:42:33.420Z,11.26
2019-05-18T02:43:33.473Z,11.25
2019-05-18T02:44:33.539Z,11.11
2019-05-18T02:45:33.603Z,11.25
2019-05-18T02:46:33.670Z,11.14
2019-05-18T02:47:33.739Z,11.10
2019-05-18T02:48:48.371Z,11.10
2019-05-18T02:49:33.858Z,10.99
2019-05-18T02:50:33.914Z,11.02
2019-05-18T02:51:33.986Z,10.94
2019-05-18T02:52:34.049Z,10.94
2019-05-18T02:53:34.101Z,10.87
2019-05-18T02:54:34.160Z,10.86
2019-05-18T02:55:34.234Z,10.76
2019-05-18T02:56:34.292Z,10.72
2019-05-18T02:57:34.438Z,10.69
2019-05-18T02:58:34.409Z,10.72
2019-05-18T02:59:34.470Z,10.59
2019-05-18T03:00:34.535Z,10.59
2019-05-18T03:01:34.603Z,10.60
2019-05-18T03:02:34.662Z,10.56
2019-05-18T03:03:34.739Z,10.57
2019-05-18T03:04:34.786Z,10.48
2019-05-18T03:05:34.846Z,10.44
2019-05-18T03:06:34.906Z,10.46
2019-05-18T03:07:34.978Z,10.42
2019-05-18T03:08:35.037Z,10.40
2019-05-18T03:09:35.099Z,10.34
2019-05-18T03:10:35.153Z,10.34
2019-05-18T03:11:35.219Z,10.38
2019-05-18T03:12:35.305Z,10.20
2019-05-18T03:13:35.353Z,10.28
2019-05-18T03:14:35.404Z,10.26
2019-05-18T03:15:35.480Z,10.15
2019-05-18T03:16:35.533Z,10.19
2019-05-18T03:17:35.622Z,10.17
2019-05-18T03:18:35.660Z,10.16
2019-05-18T03:19:35.714Z,10.12
2019-05-18T03:20:35.789Z,10.13
2019-05-18T03:21:35.838Z,10.15
2019-05-18T03:22:35.907Z,10.13
2019-05-18T03:23:35.974Z,10.12
2019-05-18T03:24:36.027Z,10.09
2019-05-18T03:25:36.087Z,10.12
2019-05-18T03:26:36.151Z,9.99
2019-05-18T03:27:36.232Z,10.01
2019-05-18T03:28:36.277Z,10.07
2019-05-18T03:29:36.339Z,10.05
2019-05-18T03:30:36.402Z,10.07
2019-05-18T03:31:36.494Z,10.02
2019-05-18T03:32:36.536Z,10.12
2019-05-18T03:33:36.593Z,10.02
2019-05-18T03:34:36.652Z,10.15
2019-05-18T03:35:36.775Z,10.07
2019-05-18T03:36:36.771Z,10.07
2019-05-18T03:37:36.848Z,10.07
2019-05-18T03:38:36.920Z,10.16
2019-05-18T03:39:36.968Z,10.19
2019-05-18T03:40:37.020Z,10.19
2019-05-18T03:41:37.079Z,10.17
2019-05-18T03:42:37.159Z,10.26
2019-05-18T03:43:37.205Z,10.22
2019-05-18T03:44:37.303Z,10.22
2019-05-18T03:45:37.328Z,10.40
2019-05-18T03:46:37.393Z,10.34
2019-05-18T03:47:37.465Z,10.41
2019-05-18T03:48:37.524Z,10.42
2019-05-18T03:49:37.589Z,10.48
2019-05-18T03:50:37.641Z,10.57
2019-05-18T03:51:37.700Z,10.56
2019-05-18T03:52:37.773Z,10.60
2019-05-18T03:53:37.838Z,10.67
2019-05-18T03:54:37.888Z,10.67
2019-05-18T03:55:37.952Z,10.74
2019-05-18T03:56:38.018Z,10.74
2019-05-18T03:57:38.094Z,10.76
2019-05-18T03:58:38.136Z,10.81
2019-05-18T03:59:38.198Z,10.90
2019-05-18T04:00:38.266Z,10.92
2019-05-18T04:01:38.324Z,10.96
2019-05-18T04:02:38.393Z,10.94
2019-05-18T04:03:38.454Z,11.04
2019-05-18T04:04:38.509Z,11.00
2019-05-18T04:05:38.571Z,11.17
2019-05-18T04:06:38.637Z,11.07
2019-05-18T04:07:38.710Z,11.12
2019-05-18T04:08:38.764Z,11.17
2019-05-18T04:09:38.828Z,11.14
2019-05-18T04:10:38.881Z,11.26
2019-05-18T04:11:38.948Z,11.32
2019-05-18T04:12:39.024Z,11.26
2019-05-18T04:13:39.078Z,11.27
2019-05-18T04:14:39.130Z,11.35
2019-05-18T04:15:39.197Z,11.41
2019-05-18T04:16:39.255Z,11.45
2019-05-18T04:17:39.438Z,11.41
2019-05-18T04:18:39.380Z,11.44
2019-05-18T04:19:46.205Z,11.35
2019-05-18T04:20:39.504Z,11.47
2019-05-18T04:21:39.566Z,11.52
2019-05-18T04:22:39.634Z,11.54
2019-05-18T04:23:39.705Z,11.57
2019-05-18T04:24:39.754Z,11.60
2019-05-18T04:25:43.564Z,11.69
2019-05-18T04:26:39.880Z,11.70
2019-05-18T04:27:39.952Z,11.68
2019-05-18T04:28:40.018Z,11.69
2019-05-18T04:29:40.066Z,11.83
2019-05-18T04:30:40.136Z,11.84
2019-05-18T04:31:40.193Z,11.88
2019-05-18T04:32:40.443Z,11.86
2019-05-18T04:33:40.316Z,11.91
2019-05-18T04:34:40.375Z,12.00
2019-05-18T04:35:40.438Z,11.97
2019-05-18T04:36:40.503Z,11.97
2019-05-18T04:37:40.570Z,12.00
2019-05-18T04:38:40.634Z,12.04
2019-05-18T04:39:40.685Z,12.02
2019-05-18T04:40:40.754Z,11.95
2019-05-18T04:41:40.824Z,12.04
2019-05-18T04:42:40.889Z,12.02
2019-05-18T04:43:40.948Z,12.02
2019-05-18T04:44:41.005Z,12.10
2019-05-18T04:45:41.063Z,12.18
2019-05-18T04:46:41.131Z,12.20
2019-05-18T04:47:41.203Z,12.13
2019-05-18T04:48:41.251Z,12.21
2019-05-18T04:49:41.315Z,12.15
2019-05-18T04:50:41.379Z,12.25
2019-05-18T04:51:41.439Z,12.25
2019-05-18T04:52:41.508Z,12.28
2019-05-18T04:53:41.572Z,12.31
2019-05-18T04:54:41.627Z,12.31
2019-05-18T04:55:41.692Z,12.29
2019-05-18T04:56:43.050Z,12.29
2019-05-18T04:57:41.823Z,12.29
2019-05-18T04:58:41.884Z,12.32
2019-05-18T04:59:41.939Z,12.29
2019-05-18T05:00:42.003Z,12.27
2019-05-18T05:01:42.063Z,12.29
2019-05-18T05:02:42.143Z,12.37
2019-05-18T05:03:42.188Z,12.32
2019-05-18T05:04:42.251Z,12.28
2019-05-18T05:05:42.315Z,12.35
2019-05-18T05:06:42.406Z,12.28
2019-05-18T05:07:42.448Z,12.29
2019-05-18T05:08:42.512Z,12.40
2019-05-18T05:09:42.564Z,12.32
2019-05-18T05:10:42.631Z,12.29
2019-05-18T05:11:42.692Z,12.40
2019-05-18T05:12:42.763Z,12.36
2019-05-18T05:13:42.824Z,12.47
2019-05-18T05:14:42.879Z,12.40
2019-05-18T05:15:42.942Z,12.42
2019-05-18T05:16:43.003Z,12.46
2019-05-18T05:17:43.085Z,12.47
2019-05-18T05:18:43.212Z,12.45
2019-05-18T05:19:43.193Z,12.49
2019-05-18T05:20:43.253Z,12.50
2019-05-18T05:21:43.320Z,12.50
2019-05-18T05:22:43.388Z,12.58
2019-05-18T05:23:43.452Z,12.61
2019-05-18T05:24:43.506Z,12.60
2019-05-18T05:25:43.568Z,12.61
2019-05-18T05:26:43.633Z,12.58
2019-05-18T05:27:43.704Z,12.73
2019-05-18T05:28:43.766Z,12.70
2019-05-18T05:29:43.819Z,12.72
2019-05-18T05:30:43.881Z,12.72
2019-05-18T05:31:43.950Z,12.72
2019-05-18T05:32:44.013Z,12.73
2019-05-18T05:33:44.083Z,12.85
2019-05-18T05:34:44.141Z,12.90
2019-05-18T05:35:44.200Z,12.93
2019-05-18T05:36:44.257Z,12.83
2019-05-18T05:37:44.359Z,12.80
2019-05-18T05:38:44.394Z,12.85
2019-05-18T05:39:44.447Z,12.90
2019-05-18T05:40:44.510Z,12.80
2019-05-18T05:41:44.575Z,12.83
2019-05-18T05:42:44.641Z,12.95
2019-05-18T05:43:44.705Z,13.00
2019-05-18T05:44:44.759Z,13.04
2019-05-18T05:45:44.830Z,13.08
2019-05-18T05:46:44.889Z,13.03
2019-05-18T05:47:44.957Z,13.05
2019-05-18T05:48:45.021Z,13.05
2019-05-18T05:49:45.077Z,13.15
2019-05-18T05:50:45.137Z,13.22
2019-05-18T05:51:45.198Z,13.30
2019-05-18T05:52:45.581Z,13.31
2019-05-18T05:53:45.331Z,13.30
2019-05-18T05:54:45.390Z,13.37
2019-05-18T05:55:45.454Z,13.46
2019-05-18T05:56:45.519Z,13.60
2019-05-18T05:57:45.579Z,13.59
2019-05-18T05:58:45.651Z,13.65
2019-05-18T05:59:45.706Z,13.67
2019-05-18T06:00:45.767Z,13.83
2019-05-18T06:01:45.832Z,13.78
2019-05-18T06:02:45.896Z,13.81
2019-05-18T06:03:45.964Z,13.92
2019-05-18T06:04:46.031Z,13.96
2019-05-18T06:05:46.084Z,14.04
2019-05-18T06:06:46.150Z,14.04
2019-05-18T06:07:46.216Z,14.17
2019-05-18T06:08:46.458Z,14.25
2019-05-18T06:09:46.335Z,14.35
2019-05-18T06:10:46.423Z,14.45
2019-05-18T06:11:46.461Z,14.54
2019-05-18T06:12:46.523Z,14.58
2019-05-18T06:13:46.596Z,14.63
2019-05-18T06:14:46.658Z,14.70
2019-05-18T06:15:46.758Z,14.81
2019-05-18T06:16:46.778Z,14.92
2019-05-18T06:17:46.846Z,14.97
2019-05-18T06:18:46.918Z,15.04
2019-05-18T06:19:46.970Z,15.02
2019-05-18T06:20:51.361Z,15.00
2019-05-18T06:21:47.095Z,14.94
2019-05-18T06:22:47.163Z,15.18
2019-05-18T06:23:47.270Z,15.21
2019-05-18T06:24:47.293Z,15.25
2019-05-18T06:25:47.351Z,15.27
2019-05-18T06:26:47.411Z,15.46
2019-05-18T06:27:47.475Z,15.44
2019-05-18T06:28:47.551Z,15.57
2019-05-18T06:29:47.613Z,15.58
2019-05-18T06:30:47.668Z,15.65
2019-05-18T06:31:47.733Z,15.67
2019-05-18T06:32:47.800Z,15.76
2019-05-18T06:33:47.877Z,15.90
2019-05-18T06:34:47.936Z,15.86
2019-05-18T06:35:47.997Z,15.91
2019-05-18T06:36:48.057Z,15.88
2019-05-18T06:37:48.123Z,15.94
2019-05-18T06:38:48.198Z,16.02
2019-05-18T06:39:48.245Z,16.01
2019-05-18T06:40:48.335Z,16.04
2019-05-18T06:41:48.372Z,15.94
2019-05-18T06:42:48.437Z,15.94
2019-05-18T06:43:48.512Z,15.97
2019-05-18T06:44:48.589Z,15.83
2019-05-18T06:45:48.629Z,15.95
2019-05-18T06:46:48.695Z,16.01
2019-05-18T06:47:48.757Z,16.08
2019-05-18T06:48:48.860Z,16.01
2019-05-18T06:49:48.896Z,16.04
2019-05-18T06:50:48.957Z,16.05
2019-05-18T06:51:49.021Z,16.05
2019-05-18T06:52:49.085Z,16.04
2019-05-18T06:53:49.157Z,16.10
2019-05-18T06:54:49.209Z,16.26
2019-05-18T06:55:49.274Z,16.24
2019-05-18T06:56:49.337Z,16.31
2019-05-18T06:57:49.409Z,16.33
2019-05-18T06:58:49.474Z,16.36
2019-05-18T06:59:49.536Z,16.42
2019-05-18T07:00:49.597Z,16.39
2019-05-18T07:01:49.670Z,16.26
2019-05-18T07:02:49.724Z,16.29
2019-05-18T07:03:49.797Z,16.28
2019-05-18T07:04:49.865Z,16.29
2019-05-18T07:05:49.920Z,16.41
2019-05-18T07:06:49.982Z,16.39
2019-05-18T07:07:50.046Z,16.53
2019-05-18T07:08:50.210Z,16.50
2019-05-18T07:09:50.181Z,16.64
2019-05-18T07:10:50.238Z,16.68
2019-05-18T07:11:50.310Z,16.75
2019-05-18T07:12:50.372Z,16.86
2019-05-18T07:13:50.447Z,16.90
2019-05-18T07:14:50.506Z,16.99
2019-05-18T07:15:50.563Z,17.04
2019-05-18T07:16:50.634Z,17.11
2019-05-18T07:17:50.703Z,17.34
2019-05-18T07:18:50.765Z,17.51
2019-05-18T07:19:50.835Z,17.54
2019-05-18T07:20:50.892Z,17.79
2019-05-18T07:21:50.955Z,17.85
2019-05-18T07:22:51.018Z,17.97
2019-05-18T07:23:51.094Z,18.05
2019-05-18T07:24:51.151Z,18.04
2019-05-18T07:25:51.215Z,18.26
2019-05-18T07:26:51.279Z,18.37
2019-05-18T07:27:51.343Z,18.47
2019-05-18T07:28:51.420Z,18.65
2019-05-18T07:29:51.482Z,18.83
2019-05-18T07:30:51.539Z,19.45
2019-05-18T07:31:51.606Z,19.44
2019-05-18T07:32:51.670Z,19.67
2019-05-18T07:33:51.748Z,19.76
2019-05-18T07:34:51.810Z,19.88
2019-05-18T07:35:51.871Z,20.00
2019-05-18T07:36:51.934Z,20.29
2019-05-18T07:37:52.009Z,20.51
2019-05-18T07:38:52.155Z,20.52
2019-05-18T07:39:52.135Z,21.55
2019-05-18T07:40:52.228Z,22.22
2019-05-18T07:41:52.273Z,22.29
2019-05-18T07:42:52.336Z,22.50
2019-05-18T07:43:52.411Z,22.76
2019-05-18T07:44:52.480Z,23.12
2019-05-18T07:45:52.540Z,23.31
2019-05-18T07:46:52.611Z,23.18
2019-05-18T07:47:52.681Z,23.15
2019-05-18T07:48:52.755Z,23.17
2019-05-18T07:49:52.823Z,23.28
2019-05-18T07:50:52.884Z,23.28
2019-05-18T07:51:52.955Z,23.77
2019-05-18T07:52:53.020Z,24.08
2019-05-18T07:53:53.180Z,24.99
2019-05-18T07:54:53.161Z,25.88
2019-05-18T07:55:53.237Z,26.41
2019-05-18T07:56:53.309Z,26.84
2019-05-18T07:57:53.404Z,27.27
2019-05-18T07:58:53.456Z,27.86
2019-05-18T07:59:53.529Z,28.29
2019-05-18T08:00:53.589Z,28.56
2019-05-18T08:01:53.665Z,28.66
2019-05-18T08:02:53.745Z,28.48
2019-05-18T08:03:53.816Z,28.57
2019-05-18T08:04:53.891Z,27.82
2019-05-18T08:05:53.956Z,27.20
2019-05-18T08:06:54.032Z,27.39
2019-05-18T08:07:54.107Z,27.58
2019-05-18T08:08:54.193Z,27.87
2019-05-18T08:09:54.253Z,28.38
2019-05-18T08:10:54.325Z,28.42
2019-05-18T08:11:54.401Z,27.92
2019-05-18T08:12:54.478Z,26.83
2019-05-18T08:13:54.558Z,26.03
2019-05-18T08:14:54.632Z,25.47
2019-05-18T08:15:54.697Z,24.78
2019-05-18T08:16:54.773Z,24.29
2019-05-18T08:17:54.849Z,24.35
2019-05-18T08:18:58.022Z,24.80
2019-05-18T08:19:54.998Z,24.78
2019-05-18T08:20:55.068Z,24.68
2019-05-18T08:21:55.142Z,23.99
2019-05-18T08:22:55.208Z,23.50
2019-05-18T08:23:55.337Z,22.91
2019-05-18T08:24:55.352Z,22.57
2019-05-18T08:25:55.425Z,22.44
2019-05-18T08:26:55.496Z,22.32
2019-05-18T08:27:55.573Z,22.22
2019-05-18T08:28:55.645Z,22.13
2019-05-18T08:29:55.720Z,21.93
2019-05-18T08:30:55.782Z,21.88
2019-05-18T08:31:55.859Z,21.72
2019-05-18T08:32:55.923Z,21.51
2019-05-18T08:33:56.001Z,21.58
2019-05-18T08:34:56.071Z,21.42
2019-05-18T08:35:56.130Z,21.27
2019-05-18T08:36:56.204Z,21.36
2019-05-18T08:37:56.269Z,21.21
2019-05-18T08:38:56.455Z,21.05
2019-05-18T08:39:56.432Z,21.03
2019-05-18T08:40:56.475Z,21.20
2019-05-18T08:41:56.553Z,21.17
2019-05-18T08:42:56.619Z,21.30
2019-05-18T08:43:56.700Z,21.36
2019-05-18T08:44:56.769Z,21.30
2019-05-18T08:45:56.822Z,21.35
2019-05-18T08:46:56.895Z,21.33
2019-05-18T08:47:56.963Z,21.35
2019-05-18T08:48:57.040Z,21.35
2019-05-18T08:49:57.107Z,21.36
2019-05-18T08:50:57.162Z,21.42
2019-05-18T08:52:07.971Z,21.45
2019-05-18T08:52:57.300Z,21.58
2019-05-18T08:53:57.375Z,21.66
2019-05-18T08:54:57.448Z,21.73
2019-05-18T08:55:57.513Z,21.83
2019-05-18T08:56:57.581Z,21.85
2019-05-18T08:57:57.644Z,22.04
2019-05-18T08:58:57.718Z,22.18
2019-05-18T08:59:57.793Z,21.95
2019-05-18T09:00:57.848Z,21.93
2019-05-18T09:01:57.917Z,21.93
2019-05-18T09:02:57.985Z,22.04
2019-05-18T09:03:58.060Z,22.20
2019-05-18T09:04:58.130Z,22.29
2019-05-18T09:05:58.195Z,22.44
2019-05-18T09:06:58.259Z,22.66
2019-05-18T09:07:58.324Z,22.87
2019-05-18T09:08:58.580Z,23.06
2019-05-18T09:09:58.465Z,23.32
2019-05-18T09:10:58.531Z,23.80
2019-05-18T09:11:58.603Z,24.02
2019-05-18T09:12:58.669Z,24.26
2019-05-18T09:13:58.743Z,24.77
2019-05-18T09:14:58.812Z,25.14
2019-05-18T09:15:58.876Z,25.14
2019-05-18T09:16:58.947Z,25.58
2019-05-18T09:17:59.018Z,25.98
2019-05-18T09:18:59.101Z,26.44
2019-05-18T09:19:59.154Z,26.66
2019-05-18T09:20:59.224Z,26.97
2019-05-18T09:21:59.296Z,27.48
2019-05-18T09:22:59.364Z,27.37
2019-05-18T09:23:59.440Z,27.42
2019-05-18T09:24:59.511Z,27.54
2019-05-18T09:25:59.580Z,27.59
2019-05-18T09:26:59.651Z,27.83
2019-05-18T09:27:59.720Z,28.11
2019-05-18T09:28:59.796Z,28.08
2019-05-18T09:29:59.868Z,27.55
2019-05-18T09:30:59.932Z,27.68
2019-05-18T09:32:00.002Z,27.92
2019-05-18T09:33:00.072Z,28.15
2019-05-18T09:34:00.236Z,28.38
2019-05-18T09:35:00.213Z,28.64
2019-05-18T09:36:00.285Z,28.59
2019-05-18T09:37:00.362Z,28.75
2019-05-18T09:38:00.430Z,28.23
2019-05-18T09:39:00.508Z,27.67
2019-05-18T09:40:00.581Z,26.95
2019-05-18T09:41:00.644Z,26.44
2019-05-18T09:42:00.725Z,25.68
2019-05-18T09:43:00.798Z,25.14
2019-05-18T09:44:00.865Z,24.91
2019-05-18T09:45:00.937Z,24.65
2019-05-18T09:46:01.001Z,24.30
2019-05-18T09:47:01.077Z,24.10
2019-05-18T09:48:01.151Z,23.87
2019-05-18T09:49:01.368Z,23.77
2019-05-18T09:50:01.285Z,23.62
2019-05-18T09:51:01.358Z,23.62
2019-05-18T09:52:01.423Z,23.40
2019-05-18T09:53:01.505Z,23.28
2019-05-18T09:54:01.577Z,23.39
2019-05-18T09:55:01.643Z,23.15
2019-05-18T09:56:01.714Z,23.00
2019-05-18T09:57:01.773Z,23.03
2019-05-18T09:58:01.851Z,22.88
2019-05-18T09:59:01.926Z,22.70
2019-05-18T10:00:01.990Z,22.85
2019-05-18T10:01:02.055Z,22.91
2019-05-18T10:02:02.123Z,22.85
2019-05-18T10:03:02.191Z,22.91
2019-05-18T10:04:02.446Z,23.08
2019-05-18T10:05:02.334Z,23.09
2019-05-18T10:06:02.406Z,23.10
2019-05-18T10:07:02.472Z,23.24
2019-05-18T10:08:02.535Z,23.23
2019-05-18T10:09:02.724Z,23.39
2019-05-18T10:10:02.687Z,23.54
2019-05-18T10:11:02.747Z,23.65
2019-05-18T10:12:02.816Z,23.71
2019-05-18T10:13:02.883Z,23.81
2019-05-18T10:14:02.960Z,23.91
2019-05-18T10:15:03.169Z,23.88
2019-05-18T10:16:03.092Z,23.95
2019-05-18T10:17:03.158Z,24.03
2019-05-18T10:18:03.230Z,24.20
2019-05-18T10:19:03.323Z,24.33
2019-05-18T10:20:03.368Z,24.23
2019-05-18T10:21:03.464Z,24.26
2019-05-18T10:22:03.511Z,24.13
2019-05-18T10:23:12.313Z,24.21
2019-05-18T10:24:03.654Z,24.17
2019-05-18T10:25:03.732Z,24.26
2019-05-18T10:26:03.785Z,24.32
2019-05-18T10:27:03.851Z,24.77
2019-05-18T10:28:03.923Z,25.14
2019-05-18T10:29:03.996Z,25.50
2019-05-18T10:30:04.073Z,25.40
2019-05-18T10:31:04.133Z,25.40
2019-05-18T10:32:04.204Z,25.65
2019-05-18T10:33:04.267Z,25.77
2019-05-18T10:34:04.341Z,25.95
2019-05-18T10:35:04.516Z,26.31
2019-05-18T10:36:04.477Z,26.59
2019-05-18T10:37:04.551Z,26.28
2019-05-18T10:38:04.621Z,26.18
2019-05-18T10:39:04.697Z,25.63
2019-05-18T10:40:04.769Z,25.31
2019-05-18T10:41:04.838Z,24.96
2019-05-18T10:42:04.905Z,24.93
2019-05-18T10:43:04.961Z,25.10
2019-05-18T10:44:05.036Z,24.68
2019-05-18T10:45:05.204Z,24.86
2019-05-18T10:46:05.175Z,24.93
2019-05-18T10:47:05.240Z,24.96
2019-05-18T10:48:05.426Z,24.89
2019-05-18T10:49:05.381Z,24.88
2019-05-18T10:50:05.461Z,24.93
2019-05-18T10:51:05.795Z,25.07
2019-05-18T10:52:05.594Z,25.10
2019-05-18T10:53:05.662Z,24.92
2019-05-18T10:54:05.729Z,24.81
2019-05-18T10:55:05.810Z,24.88
2019-05-18T10:56:05.880Z,25.08
2019-05-18T10:57:05.936Z,25.28
2019-05-18T10:58:06.011Z,25.58
2019-05-18T10:59:06.080Z,25.88
2019-05-18T11:00:06.241Z,25.81
2019-05-18T11:01:06.221Z,25.87
2019-05-18T11:02:06.286Z,25.88
2019-05-18T11:03:06.353Z,25.68
2019-05-18T11:04:06.426Z,25.48
2019-05-18T11:05:06.502Z,25.47
2019-05-18T11:06:06.569Z,25.60
2019-05-18T11:07:06.638Z,25.70
2019-05-18T11:08:06.710Z,25.68
2019-05-18T11:09:06.773Z,25.78
2019-05-18T11:10:06.850Z,25.78
2019-05-18T11:11:06.921Z,25.66
2019-05-18T11:12:06.982Z,25.70
2019-05-18T11:13:07.051Z,25.68
2019-05-18T11:14:07.123Z,25.59
2019-05-18T11:15:07.281Z,25.53
2019-05-18T11:16:07.280Z,25.33
2019-05-18T11:17:07.330Z,25.36
2019-05-18T11:18:07.399Z,25.46
2019-05-18T11:19:07.466Z,25.26
2019-05-18T11:20:07.542Z,25.35
2019-05-18T11:21:07.614Z,25.41
2019-05-18T11:22:07.679Z,25.48
2019-05-18T11:23:07.746Z,25.38
2019-05-18T11:24:07.821Z,25.16
2019-05-18T11:25:07.891Z,25.26
2019-05-18T11:26:07.964Z,25.11
2019-05-18T11:27:08.019Z,25.32
2019-05-18T11:28:08.108Z,25.50
2019-05-18T11:29:08.159Z,25.62
2019-05-18T11:30:09.104Z,25.72
2019-05-18T11:31:08.295Z,25.68
2019-05-18T11:32:08.367Z,25.46
2019-05-18T11:33:08.435Z,25.47
2019-05-18T11:34:08.511Z,25.62
2019-05-18T11:35:08.609Z,25.81
2019-05-18T11:36:08.650Z,25.65
2019-05-18T11:37:08.711Z,25.69
2019-05-18T11:38:08.780Z,25.93
2019-05-18T11:39:08.874Z,26.07
2019-05-18T11:40:08.942Z,26.16
2019-05-18T11:41:08.998Z,26.13
2019-05-18T11:42:09.063Z,26.33
2019-05-18T11:43:09.128Z,26.31
2019-05-18T11:44:10.867Z,26.16
2019-05-18T11:45:09.282Z,26.15
2019-05-18T11:46:09.347Z,26.15
2019-05-18T11:47:09.403Z,25.87
2019-05-18T11:48:09.477Z,26.07
2019-05-18T11:49:09.543Z,26.00
2019-05-18T11:50:09.624Z,26.10
2019-05-18T11:51:09.691Z,26.16
2019-05-18T11:52:09.748Z,26.18
2019-05-18T11:53:09.821Z,25.95
2019-05-18T11:54:09.906Z,25.75
2019-05-18T11:55:09.963Z,25.81
2019-05-18T11:56:10.032Z,25.90
2019-05-18T11:57:10.104Z,25.87
2019-05-18T11:58:10.165Z,25.81
2019-05-18T11:59:10.250Z,25.90
2019-05-18T12:00:12.359Z,25.91
2019-05-18T12:01:10.376Z,25.88
2019-05-18T12:02:10.440Z,25.65
2019-05-18T12:03:10.512Z,25.91
2019-05-18T12:04:10.584Z,26.06
2019-05-18T12:05:10.657Z,26.18
2019-05-18T12:06:10.732Z,26.36
2019-05-18T12:07:10.793Z,26.43
2019-05-18T12:08:10.857Z,26.43
2019-05-18T12:09:10.926Z,26.40
2019-05-18T12:10:11.001Z,26.41
2019-05-18T12:11:11.074Z,26.65
2019-05-18T12:12:11.137Z,26.60
2019-05-18T12:13:11.209Z,26.37
2019-05-18T12:14:11.272Z,26.16
2019-05-18T12:15:11.365Z,26.34
2019-05-18T12:16:11.416Z,26.33
2019-05-18T12:17:11.489Z,26.37
2019-05-18T12:18:11.550Z,26.58
2019-05-18T12:19:11.661Z,26.70
2019-05-18T12:20:11.698Z,26.74
2019-05-18T12:21:11.765Z,26.93
2019-05-18T12:22:11.830Z,26.84
2019-05-18T12:23:11.903Z,26.95
2019-05-18T12:24:15.417Z,27.00
2019-05-18T12:25:12.042Z,27.00
2019-05-18T12:26:12.122Z,27.10
2019-05-18T12:27:12.174Z,27.14
2019-05-18T12:28:12.264Z,27.33
2019-05-18T12:29:12.313Z,27.36
2019-05-18T12:30:12.404Z,27.36
2019-05-18T12:31:12.462Z,27.37
2019-05-18T12:32:12.523Z,27.32
2019-05-18T12:33:12.594Z,27.33
2019-05-18T12:34:12.662Z,27.44
2019-05-18T12:35:12.737Z,27.36
2019-05-18T12:36:15.450Z,27.20
2019-05-18T12:37:12.870Z,27.17
2019-05-18T12:38:12.942Z,26.95
2019-05-18T12:39:13.011Z,27.05
2019-05-18T12:40:13.219Z,27.02
2019-05-18T12:41:13.149Z,26.96
2019-05-18T12:42:13.225Z,27.00
2019-05-18T12:43:13.289Z,27.05
2019-05-18T12:44:13.364Z,27.17
2019-05-18T12:45:13.438Z,27.26
2019-05-18T12:46:13.516Z,27.47
2019-05-18T12:47:14.478Z,27.52
2019-05-18T12:48:13.640Z,27.49
2019-05-18T12:49:13.706Z,27.63
2019-05-18T12:50:13.783Z,27.49
2019-05-18T12:51:13.851Z,27.49
2019-05-18T12:52:13.917Z,27.42
2019-05-18T12:53:13.982Z,27.42